createdAt,value
2017-10-28T00:00:48.048Z,7.6
2017-10-28T00:02:06.734Z,7.5
2017-10-28T00:03:25.382Z,7.6
2017-10-28T00:04:44.029Z,7.6
2017-10-28T00:06:02.743Z,7.6
2017-10-28T00:07:21.438Z,7.6
2017-10-28T00:08:40.138Z,7.6
2017-10-28T00:09:58.843Z,7.7
2017-10-28T00:11:17.497Z,7.7
2017-10-28T00:12:36.145Z,7.7
2017-10-28T00:13:54.818Z,7.7
2017-10-28T00:15:13.496Z,7.8
2017-10-28T00:16:32.161Z,7.8
2017-10-28T00:17:50.842Z,7.8
2017-10-28T00:19:09.507Z,7.8
2017-10-28T00:20:28.147Z,7.8
2017-10-28T00:21:46.901Z,7.8
2017-10-28T00:23:05.545Z,7.8
2017-10-28T00:24:24.188Z,7.8
2017-10-28T00:25:42.889Z,7.8
2017-10-28T00:27:01.559Z,7.8
2017-10-28T00:28:20.254Z,7.8
2017-10-28T00:29:38.895Z,7.8
2017-10-28T00:30:57.541Z,7.8
2017-10-28T00:32:16.197Z,7.8
2017-10-28T00:33:34.840Z,7.7
2017-10-28T00:34:53.533Z,7.7
2017-10-28T00:36:12.223Z,7.7
2017-10-28T00:37:30.884Z,7.7
2017-10-28T00:38:49.524Z,7.7
2017-10-28T00:40:08.181Z,7.7
2017-10-28T00:41:26.851Z,7.7
2017-10-28T00:42:45.556Z,7.7
2017-10-28T00:44:04.251Z,7.8
2017-10-28T00:45:22.932Z,7.7
2017-10-28T00:46:41.597Z,7.8
2017-10-28T00:48:00.280Z,7.8
2017-10-28T00:49:18.930Z,7.8
2017-10-28T00:50:37.586Z,7.8
2017-10-28T00:51:56.250Z,7.8
2017-10-28T00:53:14.921Z,7.8
2017-10-28T00:54:33.577Z,7.8
2017-10-28T00:55:52.219Z,7.7
2017-10-28T00:57:10.921Z,7.7
2017-10-28T00:58:29.592Z,7.7
2017-10-28T00:59:48.266Z,7.7
2017-10-28T01:01:06.938Z,7.6
2017-10-28T01:02:25.650Z,7.6
2017-10-28T01:03:44.316Z,7.6
2017-10-28T01:05:02.968Z,7.6
2017-10-28T01:06:21.705Z,7.6
2017-10-28T01:07:40.354Z,7.7
2017-10-28T01:08:59.046Z,7.7
2017-10-28T01:10:17.688Z,7.7
2017-10-28T01:11:36.335Z,7.7
2017-10-28T01:12:54.976Z,7.7
2017-10-28T01:14:13.695Z,7.7
2017-10-28T01:15:32.337Z,7.7
2017-10-28T01:16:50.988Z,7.7
2017-10-28T01:18:09.676Z,7.7
2017-10-28T01:19:28.353Z,7.7
2017-10-28T01:20:47.011Z,7.7
2017-10-28T01:22:05.669Z,7.7
2017-10-28T01:23:24.319Z,7.7
2017-10-28T01:24:42.984Z,7.7
2017-10-28T01:26:01.705Z,7.7
2017-10-28T01:27:20.386Z,7.7
2017-10-28T01:28:39.076Z,7.7
2017-10-28T01:29:57.722Z,7.7
2017-10-28T01:31:16.370Z,7.7
2017-10-28T01:32:35.013Z,7.7
2017-10-28T01:33:53.713Z,7.6
2017-10-28T01:35:12.384Z,7.6
2017-10-28T01:36:31.079Z,7.6
2017-10-28T01:37:49.739Z,7.6
2017-10-28T01:39:08.405Z,7.6
2017-10-28T01:40:27.080Z,7.6
2017-10-28T01:41:45.743Z,7.6
2017-10-28T01:43:04.416Z,7.6
2017-10-28T01:44:23.106Z,7.6
2017-10-28T01:45:41.790Z,7.6
2017-10-28T01:47:00.446Z,7.6
2017-10-28T01:48:19.100Z,7.5
2017-10-28T01:49:37.746Z,7.5
2017-10-28T01:50:56.458Z,7.3
2017-10-28T01:52:15.112Z,7.2
2017-10-28T01:53:33.810Z,7.1
2017-10-28T01:54:52.451Z,7.1
2017-10-28T01:56:11.115Z,7
2017-10-28T01:57:29.766Z,6.9
2017-10-28T01:58:48.413Z,6.9
2017-10-28T02:00:07.079Z,6.8
2017-10-28T02:01:25.724Z,6.8
2017-10-28T02:02:44.382Z,6.8
2017-10-28T02:04:03.049Z,6.7
2017-10-28T02:05:21.697Z,6.8
2017-10-28T02:06:40.380Z,6.7
2017-10-28T02:07:59.021Z,6.7
2017-10-28T02:09:17.669Z,6.7
2017-10-28T02:10:36.372Z,6.7
2017-10-28T02:11:55.025Z,6.7
2017-10-28T02:13:13.684Z,6.7
2017-10-28T02:14:32.333Z,6.7
2017-10-28T02:15:50.988Z,6.8
2017-10-28T02:17:09.690Z,6.9
2017-10-28T02:18:28.371Z,6.9
2017-10-28T02:19:47.075Z,7
2017-10-28T02:21:05.732Z,7.1
2017-10-28T02:22:24.425Z,7.1
2017-10-28T02:23:43.114Z,7.1
2017-10-28T02:25:01.788Z,7.1
2017-10-28T02:26:20.479Z,7.1
2017-10-28T02:27:39.142Z,7.1
2017-10-28T02:28:57.808Z,7.1
2017-10-28T02:30:16.507Z,7.1
2017-10-28T02:31:35.170Z,7.1
2017-10-28T02:32:53.831Z,7.2
2017-10-28T02:34:12.484Z,7.2
2017-10-28T02:35:31.126Z,7.2
2017-10-28T02:36:49.772Z,7.2
2017-10-28T02:38:08.444Z,7.2
2017-10-28T02:39:27.092Z,7.2
2017-10-28T02:40:45.777Z,7.2
2017-10-28T02:42:04.427Z,7.2
2017-10-28T02:43:23.101Z,7.2
2017-10-28T02:44:41.762Z,7.2
2017-10-28T02:46:00.423Z,7.2
2017-10-28T02:47:19.114Z,7.2
2017-10-28T02:48:37.794Z,7.2
2017-10-28T02:49:56.463Z,7.2
2017-10-28T02:51:15.108Z,7.3
2017-10-28T02:52:33.762Z,7.3
2017-10-28T02:53:52.428Z,7.3
2017-10-28T02:55:11.117Z,7.3
2017-10-28T02:56:29.776Z,7.3
2017-10-28T02:57:48.479Z,7.3
2017-10-28T02:59:07.163Z,7.3
2017-10-28T03:00:25.826Z,7.2
2017-10-28T03:01:44.481Z,7.2
2017-10-28T03:03:03.132Z,7.3
2017-10-28T03:04:21.797Z,7.3
2017-10-28T03:05:40.450Z,7.3
2017-10-28T03:06:59.095Z,7.3
2017-10-28T03:08:17.763Z,7.3
2017-10-28T03:09:36.426Z,7.3
2017-10-28T03:10:55.094Z,7.3
2017-10-28T03:12:13.772Z,7.3
2017-10-28T03:13:32.416Z,7.3
2017-10-28T03:14:51.071Z,7.3
2017-10-28T03:16:09.734Z,7.3
2017-10-28T03:17:28.437Z,7.3
2017-10-28T03:18:47.083Z,7.3
2017-10-28T03:20:05.744Z,7.3
2017-10-28T03:21:24.407Z,7.2
2017-10-28T03:22:43.051Z,7.2
2017-10-28T03:24:01.712Z,7.2
2017-10-28T03:25:20.386Z,7.2
2017-10-28T03:26:39.040Z,7.2
2017-10-28T03:27:57.720Z,7.2
2017-10-28T03:29:16.366Z,7.2
2017-10-28T03:30:35.079Z,7.2
2017-10-28T03:31:53.733Z,7.2
2017-10-28T03:33:12.376Z,7.2
2017-10-28T03:34:31.097Z,7.2
2017-10-28T03:35:49.752Z,7.2
2017-10-28T03:37:08.403Z,7.2
2017-10-28T03:38:27.050Z,7.2
2017-10-28T03:39:45.709Z,7.2
2017-10-28T03:41:04.374Z,7.3
2017-10-28T03:42:23.044Z,7.3
2017-10-28T03:43:41.697Z,7.3
2017-10-28T03:45:00.369Z,7.3
2017-10-28T03:46:19.025Z,7.3
2017-10-28T03:47:37.708Z,7.3
2017-10-28T03:48:56.354Z,7.3
2017-10-28T03:50:15.004Z,7.3
2017-10-28T03:51:33.670Z,7.3
2017-10-28T03:52:52.316Z,7.3
2017-10-28T03:54:10.992Z,7.3
2017-10-28T03:55:29.641Z,7.3
2017-10-28T03:56:48.331Z,7.3
2017-10-28T03:58:06.985Z,7.3
2017-10-28T03:59:25.664Z,7.3
2017-10-28T04:00:44.309Z,7.3
2017-10-28T04:02:02.979Z,7.3
2017-10-28T04:03:21.639Z,7.3
2017-10-28T04:04:40.343Z,7.3
2017-10-28T04:05:59.041Z,7.3
2017-10-28T04:07:17.722Z,7.3
2017-10-28T04:08:36.364Z,7.3
2017-10-28T04:09:55.050Z,7.3
2017-10-28T04:11:13.692Z,7.3
2017-10-28T04:12:32.372Z,7.2
2017-10-28T04:13:51.058Z,7.2
2017-10-28T04:15:09.709Z,7.2
2017-10-28T04:16:28.411Z,7.2
2017-10-28T04:17:47.079Z,7.2
2017-10-28T04:19:05.788Z,7.2
2017-10-28T04:20:24.487Z,7.2
2017-10-28T04:21:43.191Z,7.2
2017-10-28T04:23:01.852Z,7.2
2017-10-28T04:24:20.515Z,7.2
2017-10-28T04:25:39.158Z,7.2
2017-10-28T04:26:57.853Z,7.2
2017-10-28T04:28:16.517Z,7.2
2017-10-28T04:29:35.163Z,7.2
2017-10-28T04:30:53.889Z,7.2
2017-10-28T04:32:12.559Z,7.2
2017-10-28T04:33:31.282Z,7.2
2017-10-28T04:34:49.931Z,7.2
2017-10-28T04:36:08.582Z,7.2
2017-10-28T04:37:27.249Z,7.2
2017-10-28T04:38:45.914Z,7.3
2017-10-28T04:40:04.556Z,7.3
2017-10-28T04:41:23.198Z,7.2
2017-10-28T04:42:41.881Z,7.2
2017-10-28T04:44:00.537Z,7.2
2017-10-28T04:45:19.185Z,7.3
2017-10-28T04:46:37.872Z,7.3
2017-10-28T04:47:56.577Z,7.3
2017-10-28T04:49:15.227Z,7.3
2017-10-28T04:50:33.880Z,7.3
2017-10-28T04:51:52.533Z,7.3
2017-10-28T04:53:11.177Z,7.3
2017-10-28T04:54:29.891Z,7.3
2017-10-28T04:55:48.580Z,7.3
2017-10-28T04:57:07.285Z,7.3
2017-10-28T04:58:25.927Z,7.3
2017-10-28T04:59:44.627Z,7.3
2017-10-28T05:01:03.314Z,7.2
2017-10-28T05:02:21.977Z,7.2
2017-10-28T05:03:40.701Z,7.2
2017-10-28T05:04:59.375Z,7.2
2017-10-28T05:06:18.044Z,7.2
2017-10-28T05:07:36.690Z,7.2
2017-10-28T05:08:55.337Z,7.2
2017-10-28T05:10:13.989Z,7.2
2017-10-28T05:11:32.633Z,7.3
2017-10-28T05:12:51.312Z,7.3
2017-10-28T05:14:09.961Z,7.3
2017-10-28T05:15:28.632Z,7.3
2017-10-28T05:16:47.339Z,7.2
2017-10-28T05:18:06.033Z,7.2
2017-10-28T05:19:24.692Z,7.2
2017-10-28T05:20:43.388Z,7.2
2017-10-28T05:22:02.088Z,7.2
2017-10-28T05:23:20.733Z,7.2
2017-10-28T05:24:39.379Z,7.2
2017-10-28T05:25:58.054Z,7.2
2017-10-28T05:27:16.709Z,7.2
2017-10-28T05:28:35.363Z,7.2
2017-10-28T05:29:54.005Z,7.2
2017-10-28T05:31:12.710Z,7.2
2017-10-28T05:32:31.384Z,7.2
2017-10-28T05:33:50.046Z,7.2
2017-10-28T05:35:08.694Z,7.2
2017-10-28T05:36:27.378Z,7.2
2017-10-28T05:37:46.028Z,7.2
2017-10-28T05:39:04.726Z,7.2
2017-10-28T05:40:23.373Z,7.2
2017-10-28T05:41:42.121Z,7.2
2017-10-28T05:43:00.784Z,7.2
2017-10-28T05:44:19.450Z,7.2
2017-10-28T05:45:38.092Z,7.2
2017-10-28T05:46:56.736Z,7.2
2017-10-28T05:48:15.437Z,7.3
2017-10-28T05:49:34.137Z,7.3
2017-10-28T05:50:52.787Z,7.3
2017-10-28T05:52:11.494Z,7.3
2017-10-28T05:53:30.158Z,7.3
2017-10-28T05:54:48.818Z,7.3
2017-10-28T05:56:07.458Z,7.2
2017-10-28T05:57:26.115Z,7.2
2017-10-28T05:58:44.788Z,7.2
2017-10-28T06:00:03.438Z,7.3
2017-10-28T06:01:22.117Z,7.3
2017-10-28T06:02:40.780Z,7.3
2017-10-28T06:03:59.451Z,7.3
2017-10-28T06:05:18.124Z,7.3
2017-10-28T06:06:36.831Z,7.3
2017-10-28T06:07:55.504Z,7.3
2017-10-28T06:09:14.153Z,7.3
2017-10-28T06:10:32.807Z,7.3
2017-10-28T06:11:51.470Z,7.3
2017-10-28T06:13:10.132Z,7.3
2017-10-28T06:14:28.794Z,7.3
2017-10-28T06:15:47.439Z,7.3
2017-10-28T06:17:06.021Z,7.3
2017-10-28T06:18:24.680Z,7.3
2017-10-28T06:19:43.329Z,7.3
2017-10-28T06:21:02.013Z,7.4
2017-10-28T06:22:20.664Z,7.4
2017-10-28T06:23:39.329Z,7.4
2017-10-28T06:24:58.033Z,7.4
2017-10-28T06:26:16.683Z,7.4
2017-10-28T06:27:35.359Z,7.4
2017-10-28T06:28:54.053Z,7.4
2017-10-28T06:30:12.712Z,7.4
2017-10-28T06:31:31.365Z,7.4
2017-10-28T06:32:50.009Z,7.4
2017-10-28T06:34:08.667Z,7.4
2017-10-28T06:35:27.314Z,7.4
2017-10-28T06:36:45.979Z,7.4
2017-10-28T06:38:04.666Z,7.4
2017-10-28T06:39:23.333Z,7.4
2017-10-28T06:40:42.002Z,7.4
2017-10-28T06:42:00.648Z,7.4
2017-10-28T06:43:19.295Z,7.4
2017-10-28T06:44:38.017Z,7.5
2017-10-28T06:45:56.676Z,7.5
2017-10-28T06:47:15.317Z,7.5
2017-10-28T06:48:33.984Z,7.5
2017-10-28T06:49:52.699Z,7.5
2017-10-28T06:51:11.341Z,7.5
2017-10-28T06:52:30.010Z,7.5
2017-10-28T06:53:48.666Z,7.5
2017-10-28T06:55:07.323Z,7.5
2017-10-28T06:56:25.970Z,7.5
2017-10-28T06:57:44.621Z,7.6
2017-10-28T06:59:03.271Z,7.6
2017-10-28T07:00:21.986Z,7.6
2017-10-28T07:01:40.689Z,7.6
2017-10-28T07:02:59.344Z,7.5
2017-10-28T07:04:18.037Z,7.6
2017-10-28T07:05:36.706Z,7.6
2017-10-28T07:06:55.371Z,7.6
2017-10-28T07:08:14.041Z,7.6
2017-10-28T07:09:32.693Z,7.6
2017-10-28T07:10:51.391Z,7.6
2017-10-28T07:12:10.090Z,7.6
2017-10-28T07:13:28.767Z,7.6
2017-10-28T07:14:47.441Z,7.6
2017-10-28T07:16:06.157Z,7.6
2017-10-28T07:17:24.836Z,7.6
2017-10-28T07:18:43.485Z,7.6
2017-10-28T07:20:02.138Z,7.7
2017-10-28T07:21:20.792Z,7.6
2017-10-28T07:22:39.444Z,7.7
2017-10-28T07:23:58.154Z,7.7
2017-10-28T07:25:16.862Z,7.7
2017-10-28T07:26:35.582Z,7.8
2017-10-28T07:27:54.263Z,7.8
2017-10-28T07:29:12.913Z,7.8
2017-10-28T07:30:31.585Z,7.8
2017-10-28T07:31:50.257Z,7.7
2017-10-28T07:33:08.905Z,7.7
2017-10-28T07:34:27.552Z,7.7
2017-10-28T07:35:46.253Z,7.7
2017-10-28T07:37:04.940Z,7.8
2017-10-28T07:38:23.584Z,7.9
2017-10-28T07:39:42.271Z,7.9
2017-10-28T07:41:00.944Z,7.8
2017-10-28T07:42:19.610Z,7.9
2017-10-28T07:43:38.256Z,7.8
2017-10-28T07:44:56.937Z,7.8
2017-10-28T07:46:15.578Z,7.8
2017-10-28T07:47:34.239Z,7.8
2017-10-28T07:48:52.913Z,7.7
2017-10-28T07:50:11.637Z,7.8
2017-10-28T07:51:30.281Z,7.8
2017-10-28T07:52:48.957Z,7.9
2017-10-28T07:54:07.613Z,7.9
2017-10-28T07:55:26.312Z,7.9
2017-10-28T07:56:44.985Z,8
2017-10-28T07:58:03.642Z,8
2017-10-28T07:59:22.287Z,8
2017-10-28T08:00:40.965Z,8
2017-10-28T08:01:59.664Z,7.9
2017-10-28T08:03:18.333Z,7.9
2017-10-28T08:04:36.977Z,7.9
2017-10-28T08:05:55.616Z,7.9
2017-10-28T08:07:14.260Z,7.8
2017-10-28T08:08:32.920Z,7.8
2017-10-28T08:09:51.587Z,7.9
2017-10-28T08:11:10.301Z,7.9
2017-10-28T08:12:29.020Z,8
2017-10-28T08:13:47.699Z,8.1
2017-10-28T08:15:06.370Z,8.1
2017-10-28T08:16:25.021Z,8.1
2017-10-28T08:17:43.698Z,8.1
2017-10-28T08:19:02.383Z,8
2017-10-28T08:20:21.061Z,8
2017-10-28T08:21:39.766Z,8
2017-10-28T08:22:58.424Z,8.1
2017-10-28T08:24:17.125Z,8.1
2017-10-28T08:25:35.795Z,8.2
2017-10-28T08:26:54.468Z,8.2
2017-10-28T08:28:13.120Z,8.1
2017-10-28T08:29:31.788Z,8.1
2017-10-28T08:30:50.470Z,8.1
2017-10-28T08:32:09.113Z,8.1
2017-10-28T08:33:27.762Z,8.1
2017-10-28T08:34:46.466Z,8.1
2017-10-28T08:36:05.107Z,8.2
2017-10-28T08:37:23.806Z,8.2
2017-10-28T08:38:42.447Z,8.3
2017-10-28T08:40:01.142Z,8.3
2017-10-28T08:41:19.826Z,8.2
2017-10-28T08:42:38.509Z,8.2
2017-10-28T08:43:57.172Z,8.2
2017-10-28T08:45:15.847Z,8.2
2017-10-28T08:46:34.554Z,8.1
2017-10-28T08:47:53.215Z,8.1
2017-10-28T08:49:11.907Z,8.2
2017-10-28T08:50:30.564Z,8.3
2017-10-28T08:51:49.212Z,8.4
2017-10-28T08:53:07.860Z,8.6
2017-10-28T08:54:26.533Z,8.7
2017-10-28T08:55:45.209Z,8.6
2017-10-28T08:57:03.895Z,8.5
2017-10-28T08:58:22.570Z,8.6
2017-10-28T08:59:41.292Z,8.6
2017-10-28T09:00:59.949Z,8.5
2017-10-28T09:02:18.615Z,8.5
2017-10-28T09:03:37.269Z,8.5
2017-10-28T09:04:55.908Z,8.5
2017-10-28T09:06:14.610Z,8.5
2017-10-28T09:07:33.293Z,8.5
2017-10-28T09:08:51.938Z,8.5
2017-10-28T09:10:10.588Z,8.6
2017-10-28T09:11:29.244Z,8.7
2017-10-28T09:12:47.887Z,8.8
2017-10-28T09:14:06.546Z,8.7
2017-10-28T09:15:25.207Z,8.7
2017-10-28T09:16:43.873Z,8.7
2017-10-28T09:18:02.529Z,8.6
2017-10-28T09:19:21.206Z,8.7
2017-10-28T09:20:39.862Z,8.8
2017-10-28T09:21:58.542Z,8.8
2017-10-28T09:23:17.191Z,8.7
2017-10-28T09:24:35.842Z,8.6
2017-10-28T09:25:54.544Z,8.7
2017-10-28T09:27:13.241Z,8.7
2017-10-28T09:28:31.948Z,8.8
2017-10-28T09:29:50.609Z,8.9
2017-10-28T09:31:09.270Z,8.9
2017-10-28T09:32:27.941Z,8.9
2017-10-28T09:33:46.588Z,8.9
2017-10-28T09:35:05.240Z,8.9
2017-10-28T09:36:23.927Z,8.8
2017-10-28T09:37:42.595Z,8.8
2017-10-28T09:39:01.264Z,8.8
2017-10-28T09:40:19.940Z,8.7
2017-10-28T09:41:38.586Z,8.7
2017-10-28T09:42:57.251Z,8.6
2017-10-28T09:44:15.909Z,8.6
2017-10-28T09:45:34.586Z,8.6
2017-10-28T09:46:53.232Z,8.5
2017-10-28T09:48:11.901Z,8.5
2017-10-28T09:49:30.560Z,8.5
2017-10-28T09:50:49.221Z,8.5
2017-10-28T09:52:07.879Z,8.5
2017-10-28T09:53:26.536Z,8.5
2017-10-28T09:54:45.191Z,8.6
2017-10-28T09:56:03.845Z,8.5
2017-10-28T09:57:22.495Z,8.6
2017-10-28T09:58:41.205Z,8.5
2017-10-28T09:59:59.887Z,8.5
2017-10-28T10:01:18.575Z,8.4
2017-10-28T10:02:37.263Z,8.3
2017-10-28T10:03:55.937Z,8.3
2017-10-28T10:05:14.636Z,8.4
2017-10-28T10:06:33.288Z,8.4
2017-10-28T10:07:51.931Z,8.4
2017-10-28T10:09:10.599Z,8.5
2017-10-28T10:10:29.252Z,8.4
2017-10-28T10:11:47.948Z,8.4
2017-10-28T10:13:06.590Z,8.6
2017-10-28T10:14:25.245Z,8.7
2017-10-28T10:15:43.937Z,8.7
2017-10-28T10:17:02.605Z,9
2017-10-28T10:18:21.251Z,9.1
2017-10-28T10:19:39.965Z,9.1
2017-10-28T10:20:58.670Z,9.3
2017-10-28T10:22:17.321Z,9.5
2017-10-28T10:23:36.004Z,9.6
2017-10-28T10:24:54.673Z,9.4
2017-10-28T10:26:13.342Z,9.2
2017-10-28T10:27:31.989Z,9.2
2017-10-28T10:28:50.631Z,9.1
2017-10-28T10:30:09.356Z,9.1
2017-10-28T10:31:28.004Z,9.2
2017-10-28T10:32:46.675Z,9.1
2017-10-28T10:34:05.317Z,9
2017-10-28T10:35:24.020Z,9
2017-10-28T10:36:42.668Z,9
2017-10-28T10:38:01.312Z,9
2017-10-28T10:39:19.966Z,8.9
2017-10-28T10:40:38.658Z,8.9
2017-10-28T10:41:57.362Z,8.8
2017-10-28T10:43:16.023Z,8.8
2017-10-28T10:44:34.676Z,8.8
2017-10-28T10:45:53.334Z,8.7
2017-10-28T10:47:12.000Z,8.8
2017-10-28T10:48:30.696Z,8.7
2017-10-28T10:49:49.349Z,8.8
2017-10-28T10:51:08.060Z,8.8
2017-10-28T10:52:26.709Z,8.7
2017-10-28T10:53:45.357Z,8.7
2017-10-28T10:55:03.998Z,8.7
2017-10-28T10:56:22.668Z,8.7
2017-10-28T10:57:41.315Z,8.8
2017-10-28T10:58:59.954Z,9
2017-10-28T11:00:18.602Z,9
2017-10-28T11:01:37.256Z,8.9
2017-10-28T11:02:55.931Z,8.8
2017-10-28T11:04:14.582Z,8.8
2017-10-28T11:05:33.224Z,8.9
2017-10-28T11:06:51.943Z,9.1
2017-10-28T11:08:10.601Z,9.4
2017-10-28T11:09:29.249Z,9.3
2017-10-28T11:10:47.902Z,9.2
2017-10-28T11:12:06.558Z,9.1
2017-10-28T11:13:25.242Z,8.9
2017-10-28T11:14:43.948Z,8.9
2017-10-28T11:16:02.645Z,8.9
2017-10-28T11:17:21.335Z,9
2017-10-28T11:18:40.035Z,9.1
2017-10-28T11:19:58.745Z,9
2017-10-28T11:21:17.401Z,9
2017-10-28T11:22:36.070Z,9
2017-10-28T11:23:54.718Z,9
2017-10-28T11:25:13.363Z,9
2017-10-28T11:26:32.022Z,8.9
2017-10-28T11:27:50.710Z,8.9
2017-10-28T11:29:09.402Z,8.7
2017-10-28T11:30:28.070Z,8.7
2017-10-28T11:31:46.713Z,8.8
2017-10-28T11:33:05.379Z,8.8
2017-10-28T11:34:24.073Z,8.8
2017-10-28T11:35:42.787Z,8.8
2017-10-28T11:37:01.447Z,8.8
2017-10-28T11:38:20.117Z,8.8
2017-10-28T11:39:38.777Z,8.7
2017-10-28T11:40:57.474Z,8.6
2017-10-28T11:42:16.177Z,8.6
2017-10-28T11:43:34.830Z,8.6
2017-10-28T11:44:53.480Z,8.6
2017-10-28T11:46:12.143Z,8.5
2017-10-28T11:47:30.803Z,8.4
2017-10-28T11:48:49.475Z,8.5
2017-10-28T11:50:08.170Z,8.5
2017-10-28T11:51:26.833Z,8.5
2017-10-28T11:52:45.517Z,8.6
2017-10-28T11:54:04.172Z,8.6
2017-10-28T11:55:22.819Z,8.6
2017-10-28T11:56:41.468Z,8.6
2017-10-28T11:58:00.173Z,8.6
2017-10-28T11:59:18.895Z,8.6
2017-10-28T12:00:37.550Z,8.6
2017-10-28T12:01:56.198Z,8.6
2017-10-28T12:03:14.882Z,8.6
2017-10-28T12:04:33.578Z,8.6
2017-10-28T12:05:52.268Z,8.6
2017-10-28T12:07:10.920Z,8.6
2017-10-28T12:08:29.622Z,8.6
2017-10-28T12:09:48.288Z,8.6
2017-10-28T12:11:06.937Z,8.7
2017-10-28T12:12:25.645Z,8.7
2017-10-28T12:13:44.300Z,8.8
2017-10-28T12:15:02.960Z,8.7
2017-10-28T12:16:21.611Z,8.7
2017-10-28T12:17:40.264Z,8.6
2017-10-28T12:18:58.928Z,8.5
2017-10-28T12:20:17.592Z,8.5
2017-10-28T12:21:36.234Z,8.5
2017-10-28T12:22:54.884Z,8.5
2017-10-28T12:24:13.532Z,8.5
2017-10-28T12:25:32.231Z,8.5
2017-10-28T12:26:50.879Z,8.5
2017-10-28T12:28:09.521Z,8.5
2017-10-28T12:29:28.173Z,8.5
2017-10-28T12:30:46.841Z,8.6
2017-10-28T12:32:05.515Z,8.5
2017-10-28T12:33:24.168Z,8.6
2017-10-28T12:34:42.810Z,8.5
2017-10-28T12:36:01.481Z,8.5
2017-10-28T12:37:20.119Z,8.6
2017-10-28T12:38:38.801Z,8.6
2017-10-28T12:39:57.454Z,8.5
2017-10-28T12:41:16.181Z,8.5
2017-10-28T12:42:34.825Z,8.4
2017-10-28T12:43:53.520Z,8.3
2017-10-28T12:45:12.206Z,8.3
2017-10-28T12:46:30.924Z,8.3
2017-10-28T12:47:49.570Z,8.3
2017-10-28T12:49:08.223Z,8.3
2017-10-28T12:50:26.875Z,8.2
2017-10-28T12:51:45.580Z,8.2
2017-10-28T12:53:04.254Z,8.2
2017-10-28T12:54:22.910Z,8.2
2017-10-28T12:55:41.607Z,8.3
2017-10-28T12:57:00.305Z,8.4
2017-10-28T12:58:18.984Z,8.4
2017-10-28T12:59:37.662Z,8.4
2017-10-28T13:00:56.349Z,8.3
2017-10-28T13:02:15.021Z,8.3
2017-10-28T13:03:33.735Z,8.3
2017-10-28T13:04:52.384Z,8.3
2017-10-28T13:06:11.087Z,8.4
2017-10-28T13:07:29.761Z,8.4
2017-10-28T13:08:48.421Z,8.4
2017-10-28T13:10:07.094Z,8.4
2017-10-28T13:11:25.745Z,8.4
2017-10-28T13:12:44.460Z,8.4
2017-10-28T13:14:03.105Z,8.4
2017-10-28T13:15:21.750Z,8.5
2017-10-28T13:16:40.420Z,8.6
2017-10-28T13:17:59.065Z,8.6
2017-10-28T13:19:17.717Z,8.6
2017-10-28T13:20:36.375Z,8.5
2017-10-28T13:21:55.043Z,8.6
2017-10-28T13:23:13.714Z,8.7
2017-10-28T13:24:32.384Z,8.7
2017-10-28T13:25:51.041Z,8.7
2017-10-28T13:27:09.690Z,8.8
2017-10-28T13:28:28.360Z,8.8
2017-10-28T13:29:47.006Z,8.8
2017-10-28T13:31:05.681Z,8.8
2017-10-28T13:32:24.343Z,8.8
2017-10-28T13:33:43.010Z,8.8
2017-10-28T13:35:01.657Z,8.8
2017-10-28T13:36:20.320Z,8.8
2017-10-28T13:37:38.979Z,8.9
2017-10-28T13:38:57.655Z,9
2017-10-28T13:40:16.351Z,9.1
2017-10-28T13:41:35.048Z,9.1
2017-10-28T13:42:53.699Z,9.3
2017-10-28T13:44:12.358Z,9.3
2017-10-28T13:45:31.025Z,9.5
2017-10-28T13:46:49.678Z,9.6
2017-10-28T13:48:08.319Z,9.6
2017-10-28T13:49:26.980Z,9.6
2017-10-28T13:50:45.665Z,9.6
2017-10-28T13:52:04.351Z,9.5
2017-10-28T13:53:22.993Z,9.3
2017-10-28T13:54:41.664Z,9.3
2017-10-28T13:56:00.313Z,9.1
2017-10-28T13:57:18.954Z,9
2017-10-28T13:58:37.599Z,9
2017-10-28T13:59:56.303Z,9.1
2017-10-28T14:01:14.973Z,9
2017-10-28T14:02:33.620Z,8.9
2017-10-28T14:03:52.262Z,8.9
2017-10-28T14:05:10.910Z,8.9
2017-10-28T14:06:29.554Z,8.9
2017-10-28T14:07:48.201Z,8.7
2017-10-28T14:09:06.848Z,8.5
2017-10-28T14:10:25.513Z,8.5
2017-10-28T14:11:44.155Z,8.4
2017-10-28T14:13:02.806Z,8.3
2017-10-28T14:14:21.459Z,8.4
2017-10-28T14:15:40.138Z,8.5
2017-10-28T14:16:58.784Z,8.5
2017-10-28T14:18:17.427Z,8.6
2017-10-28T14:19:36.083Z,8.6
2017-10-28T14:20:54.762Z,8.7
2017-10-28T14:22:13.454Z,8.6
2017-10-28T14:23:32.100Z,8.7
2017-10-28T14:24:50.758Z,8.6
2017-10-28T14:26:09.418Z,8.6
2017-10-28T14:27:28.060Z,8.7
2017-10-28T14:28:46.733Z,8.8
2017-10-28T14:30:05.371Z,8.8
2017-10-28T14:31:24.040Z,8.9
2017-10-28T14:32:42.707Z,8.9
2017-10-28T14:34:01.407Z,8.8
2017-10-28T14:35:20.078Z,8.8
2017-10-28T14:36:38.782Z,8.8
2017-10-28T14:37:57.426Z,8.9
2017-10-28T14:39:16.074Z,9
2017-10-28T14:40:34.746Z,8.9
2017-10-28T14:41:53.410Z,8.9
2017-10-28T14:43:12.057Z,9
2017-10-28T14:44:30.709Z,8.9
2017-10-28T14:45:49.354Z,8.8
2017-10-28T14:47:08.044Z,8.7
2017-10-28T14:48:26.717Z,8.6
2017-10-28T14:49:45.366Z,8.6
2017-10-28T14:51:04.054Z,8.5
2017-10-28T14:52:22.723Z,8.4
2017-10-28T14:53:41.368Z,8.3
2017-10-28T14:55:00.051Z,8.2
2017-10-28T14:56:18.700Z,8.2
2017-10-28T14:57:37.370Z,8.1
2017-10-28T14:58:56.022Z,8
2017-10-28T15:00:14.718Z,8
2017-10-28T15:01:33.401Z,8
2017-10-28T15:02:52.063Z,7.9
2017-10-28T15:04:10.720Z,7.9
2017-10-28T15:05:29.366Z,7.9
2017-10-28T15:06:48.018Z,7.9
2017-10-28T15:08:06.696Z,7.9
2017-10-28T15:09:25.345Z,7.9
2017-10-28T15:10:44.025Z,7.9
2017-10-28T15:12:02.666Z,7.9
2017-10-28T15:13:21.348Z,7.8
2017-10-28T15:14:40.001Z,7.8
2017-10-28T15:15:58.658Z,7.9
2017-10-28T15:17:17.301Z,7.9
2017-10-28T15:18:35.950Z,7.9
2017-10-28T15:19:54.621Z,7.8
2017-10-28T15:21:13.278Z,7.9
2017-10-28T15:22:31.928Z,7.9
2017-10-28T15:23:50.600Z,7.8
2017-10-28T15:25:09.253Z,7.8
2017-10-28T15:26:27.901Z,7.8
2017-10-28T15:27:46.540Z,7.8
2017-10-28T15:29:05.219Z,7.8
2017-10-28T15:30:23.869Z,7.8
2017-10-28T15:31:42.521Z,7.8
2017-10-28T15:33:01.206Z,7.8
2017-10-28T15:34:19.884Z,7.8
2017-10-28T15:35:38.576Z,7.8
2017-10-28T15:36:57.271Z,7.8
2017-10-28T15:38:15.939Z,7.8
2017-10-28T15:39:34.641Z,7.8
2017-10-28T15:40:53.285Z,7.7
2017-10-28T15:42:11.982Z,7.8
2017-10-28T15:43:30.640Z,7.8
2017-10-28T15:44:49.294Z,7.7
2017-10-28T15:46:08.012Z,7.7
2017-10-28T15:47:26.679Z,7.7
2017-10-28T15:48:45.337Z,7.7
2017-10-28T15:50:04.050Z,7.7
2017-10-28T15:51:22.722Z,7.7
2017-10-28T15:52:41.370Z,7.6
2017-10-28T15:54:00.012Z,7.6
2017-10-28T15:55:18.669Z,7.6
2017-10-28T15:56:37.355Z,7.6
2017-10-28T15:57:56.027Z,7.6
2017-10-28T15:59:14.705Z,7.6
2017-10-28T16:00:33.369Z,7.6
2017-10-28T16:01:52.016Z,7.6
2017-10-28T16:03:10.700Z,7.6
2017-10-28T16:04:29.390Z,7.6
2017-10-28T16:05:48.039Z,7.6
2017-10-28T16:07:06.711Z,7.6
2017-10-28T16:08:25.409Z,7.6
2017-10-28T16:09:44.097Z,7.6
2017-10-28T16:11:02.764Z,7.6
2017-10-28T16:12:21.404Z,7.6
2017-10-28T16:13:40.057Z,7.5
2017-10-28T16:14:58.740Z,7.6
2017-10-28T16:16:17.398Z,7.6
2017-10-28T16:17:36.038Z,7.6
2017-10-28T16:18:54.687Z,7.6
2017-10-28T16:20:13.371Z,7.5
2017-10-28T16:21:32.085Z,7.5
2017-10-28T16:22:50.755Z,7.5
2017-10-28T16:24:09.442Z,7.5
2017-10-28T16:25:28.094Z,7.5
2017-10-28T16:26:46.762Z,7.5
2017-10-28T16:28:05.409Z,7.5
2017-10-28T16:29:24.061Z,7.5
2017-10-28T16:30:42.769Z,7.5
2017-10-28T16:32:01.438Z,7.5
2017-10-28T16:33:20.090Z,7.5
2017-10-28T16:34:38.768Z,7.5
2017-10-28T16:35:57.458Z,7.5
2017-10-28T16:37:16.159Z,7.5
2017-10-28T16:38:34.809Z,7.5
2017-10-28T16:39:53.456Z,7.5
2017-10-28T16:41:12.115Z,7.5
2017-10-28T16:42:30.774Z,7.5
2017-10-28T16:43:49.497Z,7.5
2017-10-28T16:45:08.140Z,7.5
2017-10-28T16:46:26.790Z,7.5
2017-10-28T16:47:45.459Z,7.5
2017-10-28T16:49:04.123Z,7.5
2017-10-28T16:50:22.806Z,7.5
2017-10-28T16:51:41.449Z,7.5
2017-10-28T16:53:00.104Z,7.5
2017-10-28T16:54:18.750Z,7.5
2017-10-28T16:55:37.406Z,7.5
2017-10-28T16:56:56.096Z,7.5
2017-10-28T16:58:14.763Z,7.5
2017-10-28T16:59:33.421Z,7.4
2017-10-28T17:00:52.068Z,7.4
2017-10-28T17:02:10.753Z,7.4
2017-10-28T17:03:29.440Z,7.4
2017-10-28T17:04:48.143Z,7.4
2017-10-28T17:06:06.822Z,7.4
2017-10-28T17:07:25.476Z,7.4
2017-10-28T17:08:44.157Z,7.4
2017-10-28T17:10:02.804Z,7.4
2017-10-28T17:11:21.456Z,7.4
2017-10-28T17:12:40.111Z,7.4
2017-10-28T17:13:58.786Z,7.4
2017-10-28T17:15:17.442Z,7.4
2017-10-28T17:16:36.137Z,7.4
2017-10-28T17:17:54.784Z,7.3
2017-10-28T17:19:13.440Z,7.3
2017-10-28T17:20:32.092Z,7.3
2017-10-28T17:21:50.763Z,7.3
2017-10-28T17:23:09.458Z,7.3
2017-10-28T17:24:28.128Z,7.3
2017-10-28T17:25:46.831Z,7.3
2017-10-28T17:27:05.527Z,7.3
2017-10-28T17:28:24.236Z,7.3
2017-10-28T17:29:42.896Z,7.3
2017-10-28T17:31:01.596Z,7.3
2017-10-28T17:32:20.237Z,7.3
2017-10-28T17:33:38.880Z,7.3
2017-10-28T17:34:57.573Z,7.3
2017-10-28T17:36:16.215Z,7.4
2017-10-28T17:37:34.871Z,7.3
2017-10-28T17:38:53.540Z,7.3
2017-10-28T17:40:12.208Z,7.3
2017-10-28T17:41:30.849Z,7.3
2017-10-28T17:42:49.509Z,7.3
2017-10-28T17:44:08.161Z,7.3
2017-10-28T17:45:26.862Z,7.3
2017-10-28T17:46:45.509Z,7.3
2017-10-28T17:48:04.184Z,7.3
2017-10-28T17:49:22.821Z,7.3
2017-10-28T17:50:41.511Z,7.3
2017-10-28T17:52:00.221Z,7.3
2017-10-28T17:53:18.892Z,7.3
2017-10-28T17:54:37.596Z,7.3
2017-10-28T17:55:56.249Z,7.3
2017-10-28T17:57:14.891Z,7.3
2017-10-28T17:58:33.538Z,7.3
2017-10-28T17:59:52.193Z,7.3
2017-10-28T18:01:10.900Z,7.3
2017-10-28T18:02:29.545Z,7.3
2017-10-28T18:03:48.245Z,7.2
2017-10-28T18:05:06.892Z,7.2
2017-10-28T18:06:25.568Z,7.2